Accueil
METAR-TAF:

METAR-TAF

Aéroports :

Christchurch, Nouvelle-Zélande

Aéroport international de Christchurch

latitude: 43-29S, longitude: 172-33E, altitude: 38 m

Observation

Le bulletin a été fait il y a 16 minutes, à 13:30 UTC
Vent 6 kt de ouest
Température 2°C
Humidité 87%
Pression 1016 hPa
Visibilité 10 km ou plus

METAR: NZCH 211330Z AUTO 27006KT 9999 NCD 02/00 Q1016 NOSIG

Heure: 01:46 (13:46 UTC)

Prévision

Le bulletin a été fait il y a 2 heures et 20 minutes, à 11:26 UTC
Prévision valable du 21 à 12 UTC au 22 à 12 UTC
Vent 5 kt de ouest/sud-ouest
Visibilité 10 km ou plus
Quelques nuages à une hauteur de 5000 ft
Evoluant progressivement
du 22 à 00 UTC au 22 à 02 UTC
Vent 10 kt de nord-est
Evoluant progressivement
du 22 à 10 UTC au 22 à 12 UTC
Vent 5 kt de ouest

TAF: NZCH 211126Z 2112/2212 24005KT 9999 FEW050 BECMG 2200/2202 04010KT BECMG 2210/2212 26005KT

Observations et prévisions météorologiques de plus de 4000 aéroports (messages METAR et TAF).

Les stations disponibles sont représentées par des disques jaunes et rouges sur la carte.

Passer la souris dessus pour voir le nom de la station.

Cliquer dessus pour voir les observations et prévisions météorologiques.

Pour changer de carte: cliquez sur les boutons verts avec une croix noire pour zoomer, sur le bouton vert avec un tiret pour effectuer un zoom arrière, ou sur les flèches vertes pour les cartes adjacentes.


METAR-TAF: